Latest Weather Observations for Sheoaks

IDV60901

Issued at 12:01 am EST Tuesday 26 July 2016 (issued every 10 minutes, with the page automatically refreshed every 10 minutes)

About weather observations | Map of Melbourne area stations | Latest observations for Melbourne area | Other Formats
Station Details ID: 087168 Name: SHEOAKS Lat: -37.91 Lon: 144.13 Height: 236.7 m
Data from the previous 72 hours. | See also: Recent months at Sheoaks
Date/Time
EST
Temp
°C
App
Temp
°C
Dew
Point
°C
Rel
Hum
%
Delta-T
°C
Wind Press
QNH
hPa
Press
MSL
hPa
Rain since
9am
mm
Dir  Spd
km/h
Gust
km/h
Spd
kts
Gust
kts
26/12:00am 6.1 -0.4 0.6 68 2.2 WNW 24 35 13 19 1007.4 1007.7 5.0
 
Date/Time
EST
Temp
°C
App
Temp
°C
Dew
Point
°C
Rel
Hum
%
Delta-T
°C
Wind Press
QNH
hPa
Press
MSL
hPa
Rain since
9am
mm
Dir  Spd
km/h
Gust
km/h
Spd
kts
Gust
kts
25/11:30pm 6.4 -1.1 0.9 68 2.2 WNW 30 46 16 25 1007.2 1007.5 5.0
25/11:21pm 6.3 -0.9 1.0 69 2.1 WNW 28 46 15 25 1006.9 1007.3 5.0
25/11:00pm 6.3 -0.8 1.2 70 2.1 WNW 28 41 15 22 1007.0 1007.4 5.0
25/10:30pm 6.4 -1.1 1.1 69 2.1 WNW 30 50 16 27 1006.5 1006.9 5.0
25/10:05pm 6.5 -1.0 1.4 70 2.1 WNW 30 48 16 26 1006.5 1006.9 5.0
25/10:00pm 6.4 -0.7 1.5 71 2.0 WNW 28 43 15 23 1006.3 1006.7 5.0
25/09:30pm 6.7 -1.1 1.4 69 2.2 WNW 32 50 17 27 1006.2 1006.5 5.0
25/09:00pm 6.8 -0.2 1.9 71 2.0 WNW 28 48 15 26 1006.0 1006.3 5.0
25/08:30pm 7.7 0.4 2.4 69 2.2 WNW 30 50 16 27 1005.4 1005.7 5.0
25/08:03pm 7.9 0.0 2.4 68 2.3 WNW 33 52 18 28 1005.0 1005.3 5.0
25/08:00pm 7.9 0.3 2.6 69 2.3 WNW 32 48 17 26 1005.0 1005.3 5.0
25/07:31pm 7.9 0.4 3.2 72 2.0 WNW 32 50 17 27 1004.9 1005.2 5.0
25/07:30pm 7.9 0.2 3.2 72 2.0 WNW 33 50 18 27 1004.9 1005.2 5.0
25/07:02pm 8.2 1.5 3.5 72 2.0 WNW 28 46 15 25 1003.9 1004.2 5.0
25/07:00pm 8.3 2.0 3.6 72 2.1 NW 26 39 14 21 1004.0 1004.3 5.0
25/06:30pm 7.9 1.3 4.3 78 1.6 NW 28 46 15 25 1003.3 1003.6 5.0
25/06:00pm 7.0 0.9 4.8 86 1.0 WNW 26 43 14 23 1003.7 1004.0 4.8
25/05:30pm 8.9 1.6 7.0 88 0.9 WNW 35 57 19 31 1003.1 1003.4 3.2
25/05:28pm 8.9 1.6 7.2 89 0.8 WNW 35 54 19 29 1002.8 1003.1 2.8
25/05:25pm 9.1 2.2 7.2 88 0.9 NW 33 54 18 29 1002.9 1003.2 2.2
25/05:00pm 9.5 1.7 6.8 83 1.3 NNW 37 57 20 31 1000.8 1001.1 0.0
25/04:30pm 10.0 1.3 6.0 76 1.9 NNW 41 65 22 35 1000.1 1000.4 0.0
25/04:00pm 10.2 1.4 5.6 73 2.2 NNW 41 72 22 39 1000.6 1000.9 0.0
25/03:30pm 10.7 2.7 5.5 70 2.4 NNW 37 61 20 33 1001.3 1001.6 0.0
25/03:00pm 11.1 1.8 5.2 67 2.8 NNW 43 65 23 35 1001.8 1002.1 0.0
25/02:30pm 11.5 3.7 4.7 63 3.1 NNW 35 61 19 33 1003.0 1003.3 0.0
25/02:00pm 11.3 3.6 3.6 59 3.5 NW 33 52 18 28 1003.3 1003.6 0.0
25/01:32pm 11.6 4.1 3.4 57 3.7 NNW 32 50 17 27 1003.8 1004.1 0.0
25/01:30pm 11.7 4.2 3.5 57 3.7 NNW 32 50 17 27 1004.0 1004.3 0.0
25/01:00pm 11.4 4.3 3.7 59 3.5 NNW 30 44 16 24 1005.4 1005.7 0.0
25/12:30pm 11.1 3.9 3.2 58 3.5 NW 30 48 16 26 1006.2 1006.5 0.0
25/12:20pm 11.2 4.5 3.5 59 3.4 NW 28 50 15 27 1006.3 1006.7 0.0
25/12:00pm 11.0 3.9 3.8 61 3.2 WNW 30 46 16 25 1006.9 1007.3 0.0
25/11:54am 10.6 3.9 3.4 61 3.2 NW 28 48 15 26 1007.0 1007.4 0.0
25/11:30am 10.6 4.1 2.9 59 3.4 NW 26 41 14 22 1007.0 1007.4 0.0
25/11:00am 10.3 4.9 4.5 67 2.6 WNW 22 35 12 19 1007.8 1008.1 0.0
25/10:30am 9.4 3.6 4.4 71 2.2 WNW 24 41 13 22 1008.1 1008.4 0.0
25/10:00am 9.4 2.8 4.2 70 2.3 WNW 28 43 15 23 1008.0 1008.3 0.0
25/09:30am 8.7 4.0 5.3 79 1.5 WNW 19 30 10 16 1008.1 1008.4 0.0
25/09:00am 8.4 3.2 5.3 81 1.4 WNW 22 35 12 19 1008.2 1008.5 0.0
25/08:30am 7.7 2.2 5.7 87 0.9 WNW 24 32 13 17 1008.1 1008.4 0.0
25/08:00am 7.8 1.8 5.1 83 1.2 WNW 26 43 14 23 1007.8 1008.1 0.0
25/07:30am 8.1 2.8 5.0 81 1.4 WNW 22 37 12 20 1007.3 1007.6 0.0
25/07:00am 8.1 2.5 5.2 82 1.3 WNW 24 35 13 19 1006.6 1007.0 0.0
25/06:30am 8.2 2.5 5.0 80 1.4 WNW 24 37 13 20 1006.2 1006.5 0.0
25/06:00am 7.7 2.9 4.7 81 1.3 NW 19 32 10 17 1005.9 1006.2 0.0
25/05:30am 6.7 1.7 3.7 81 1.3 NW 19 35 10 19 1005.7 1006.0 0.0
25/05:00am 6.7 1.7 3.5 80 1.4 NW 19 30 10 16 1005.2 1005.5 0.0
25/04:30am 6.9 1.9 3.5 79 1.5 NW 19 28 10 15 1004.9 1005.2 0.0
25/04:00am 6.8 1.5 3.2 78 1.5 NW 20 30 11 16 1004.8 1005.1 0.0
25/03:30am 6.8 0.8 3.2 78 1.5 NW 24 35 13 19 1004.4 1004.7 0.0
25/03:00am 6.9 0.5 3.2 77 1.6 NW 26 37 14 20 1004.1 1004.4 0.0
25/02:30am 6.7 0.7 3.1 78 1.5 NW 24 41 13 22 1004.1 1004.4 0.0
25/02:00am 6.3 0.6 2.9 79 1.4 NW 22 32 12 17 1004.0 1004.3 0.0
25/01:30am 6.3 1.0 3.1 80 1.4 NW 20 32 11 17 1003.8 1004.1 0.0
25/01:00am 6.3 1.0 3.1 80 1.4 NW 20 35 11 19 1003.9 1004.2 0.0
25/12:30am 6.5 1.2 3.1 79 1.4 NW 20 32 11 17 1004.0 1004.3 0.0
25/12:00am 6.7 1.6 3.3 79 1.5 NW 19 33 10 18 1004.0 1004.3 0.0
 
Date/Time
EST
Temp
°C
App
Temp
°C
Dew
Point
°C
Rel
Hum
%
Delta-T
°C
Wind Press
QNH
hPa
Press
MSL
hPa
Rain since
9am
mm
Dir  Spd
km/h
Gust
km/h
Spd
kts
Gust
kts
24/11:30pm 6.8 1.5 3.1 77 1.6 NW 20 32 11 17 1004.0 1004.3 0.0
24/11:00pm 6.6 1.3 3.0 78 1.5 NNW 20 32 11 17 1003.6 1003.9 0.0
24/10:30pm 6.9 1.3 3.2 77 1.6 NNW 22 33 12 18 1003.5 1003.8 0.0
24/10:00pm 6.9 1.6 3.2 77 1.6 NNW 20 28 11 15 1003.5 1003.8 0.0
24/09:30pm 7.0 1.8 3.4 78 1.5 NNW 20 32 11 17 1003.5 1003.8 0.0
24/09:00pm 7.1 1.9 3.3 77 1.6 NNW 20 32 11 17 1003.5 1003.8 0.0
24/08:30pm 7.5 2.3 3.7 77 1.6 NNW 20 32 11 17 1003.5 1003.8 0.0
24/08:00pm 7.4 2.8 3.6 77 1.7 NNW 17 28 9 15 1003.6 1003.9 0.0
24/07:30pm 7.6 2.6 3.8 77 1.7 NNW 19 30 10 16 1003.4 1003.7 0.0
24/07:00pm 8.0 2.5 4.0 76 1.8 NNW 22 37 12 20 1003.5 1003.8 0.0
24/06:30pm 8.3 3.7 3.9 74 1.9 N 17 26 9 14 1003.3 1003.6 0.0
24/06:00pm 8.5 3.6 4.1 74 2.0 N 19 32 10 17 1003.2 1003.5 0.0
24/05:30pm 9.0 3.8 3.6 69 2.4 N 20 32 11 17 1003.0 1003.3 0.0
24/05:00pm 9.5 4.3 3.7 67 2.6 N 20 28 11 15 1003.1 1003.4 0.0
24/04:30pm 9.0 4.8 4.0 71 2.2 NNW 15 26 8 14 1003.3 1003.6 0.0
24/04:00pm 8.7 3.8 3.9 72 2.1 N 19 26 10 14 1003.7 1004.0 0.0
24/03:30pm 8.8 2.1 3.4 69 2.4 NNW 28 39 15 21 1004.1 1004.4 0.0
24/03:00pm 9.0 3.0 3.4 68 2.5 NNW 24 35 13 19 1004.5 1004.8 0.0
24/02:30pm 9.2 4.0 3.8 69 2.4 NNW 20 33 11 18 1004.9 1005.2 0.0
24/02:07pm 9.7 3.0 3.4 65 2.8 NNW 28 46 15 25 1004.9 1005.2 0.0
24/02:00pm 10.4 3.4 3.9 64 2.9 NNW 30 46 16 25 1004.9 1005.2 0.0
24/01:41pm 10.0 2.9 3.7 65 2.8 NNW 30 48 16 26 1004.9 1005.2 0.0
24/01:30pm 9.7 2.1 3.0 63 2.9 NNW 32 46 17 25 1005.1 1005.4 0.0
24/01:00pm 9.5 1.7 3.0 64 2.8 NNW 33 52 18 28 1005.7 1006.0 0.0
24/12:30pm 9.3 2.2 3.5 67 2.5 NNW 30 50 16 27 1006.1 1006.4 0.0
24/12:01pm 9.0 1.3 3.2 67 2.5 NNW 33 52 18 28 1006.5 1006.9 0.0
24/12:00pm 9.0 0.9 3.4 68 2.5 NNW 35 52 19 28 1006.5 1006.9 0.0
24/11:38am 8.8 1.1 3.2 68 2.4 NNW 33 52 18 28 1007.2 1007.5 0.0
24/11:30am 8.7 0.9 3.1 68 2.4 NNW 33 46 18 25 1007.3 1007.6 0.0
24/11:00am 8.4 1.2 3.1 69 2.3 N 30 44 16 24 1007.8 1008.1 0.0
24/10:30am 8.1 1.3 3.0 70 2.2 NNW 28 43 15 23 1008.4 1008.7 0.0
24/10:00am 7.5 1.0 2.8 72 2.0 NNW 26 43 14 23 1008.5 1008.8 0.0
24/09:30am 7.0 0.2 2.9 75 1.7 NNW 28 43 15 23 1008.7 1009.0 0.0
24/09:00am 6.2 0.1 2.7 78 1.5 NNW 24 39 13 21 1009.0 1009.3 2.0
24/08:30am 5.2 -0.2 2.4 82 1.2 N 20 28 11 15 1009.1 1009.4 2.0
24/08:00am 4.7 -1.1 2.1 83 1.1 NNW 22 35 12 19 1009.2 1009.5 2.0
24/07:30am 3.9 -1.5 1.4 84 1.0 NNW 19 30 10 16 1009.2 1009.5 2.0
24/07:00am 3.5 -0.8 1.1 84 0.9 N 13 17 7 9 1009.5 1009.8 2.0
24/06:30am 3.7 -0.2 1.1 83 1.0 NNW 11 17 6 9 1009.6 1009.9 2.0
24/06:00am 3.6 -0.3 1.2 84 0.9 NNW 11 17 6 9 1009.6 1009.9 2.0
24/05:30am 3.5 -0.4 1.1 84 0.9 NNW 11 19 6 10 1009.7 1010.0 2.0
24/05:00am 3.7 -0.2 1.3 84 0.9 NNW 11 17 6 9 1010.1 1010.5 2.0
24/04:30am 3.6 -0.3 1.2 84 0.9 NNW 11 17 6 9 1010.4 1010.8 2.0
24/04:00am 3.3 -0.2 1.0 85 0.9 N 9 15 5 8 1010.9 1011.3 2.0
24/03:30am 3.5 -0.4 0.9 83 1.0 NNW 11 19 6 10 1011.2 1011.6 2.0
24/03:00am 3.4 -0.6 0.8 83 1.0 NNW 11 15 6 8 1011.4 1011.8 2.0
24/02:30am 3.4 -0.2 0.8 83 1.0 NNW 9 15 5 8 1011.4 1011.8 2.0
24/02:00am 3.7 -0.2 1.1 83 1.0 NNW 11 15 6 8 1011.4 1011.8 2.0
24/01:30am 4.1 0.3 1.5 83 1.0 NNW 11 15 6 8 1011.6 1011.9 2.0
24/01:00am 4.4 0.6 1.8 83 1.0 NW 11 15 6 8 1011.6 1011.9 2.0
24/12:30am 4.4 1.0 1.9 84 1.0 NNW 9 17 5 9 1012.0 1012.3 2.0
24/12:00am 4.9 1.6 2.3 83 1.1 NNW 9 13 5 7 1012.0 1012.3 2.0
 
Date/Time
EST
Temp
°C
App
Temp
°C
Dew
Point
°C
Rel
Hum
%
Delta-T
°C
Wind Press
QNH
hPa
Press
MSL
hPa
Rain since
9am
mm
Dir  Spd
km/h
Gust
km/h
Spd
kts
Gust
kts
23/11:30pm 5.2 1.5 2.6 83 1.1 NNW 11 15 6 8 1012.1 1012.4 2.0
23/11:00pm 5.3 1.6 2.5 82 1.2 NW 11 17 6 9 1012.4 1012.7 2.0
23/10:30pm 5.4 1.4 2.6 82 1.2 NW 13 19 7 10 1012.4 1012.7 2.0
23/10:00pm 5.6 2.4 2.8 82 1.2 NW 9 15 5 8 1012.4 1012.7 2.0
23/09:30pm 5.7 2.1 3.0 83 1.1 NW 11 17 6 9 1012.4 1012.7 2.0
23/09:00pm 5.7 1.7 2.9 82 1.2 NW 13 19 7 10 1012.3 1012.6 2.0
23/08:30pm 5.8 1.5 3.0 82 1.2 WNW 15 20 8 11 1012.1 1012.4 2.0
23/08:00pm 5.7 1.4 3.2 84 1.1 WNW 15 22 8 12 1012.0 1012.3 2.0
23/07:30pm 5.8 1.5 3.5 85 1.0 WNW 15 20 8 11 1011.9 1012.2 2.0
23/07:00pm 5.7 2.2 3.5 86 0.9 W 11 19 6 10 1011.6 1011.9 2.0
23/06:30pm 5.8 1.8 3.1 83 1.1 W 13 20 7 11 1011.1 1011.5 1.8
23/06:00pm 4.8 0.4 2.5 85 0.9 WSW 15 28 8 15 1010.6 1011.0 1.8
23/05:30pm 6.5 1.8 3.1 79 1.4 W 17 22 9 12 1010.1 1010.5 1.6
23/05:00pm 6.5 1.3 3.3 80 1.4 W 20 35 11 19 1009.7 1010.0 1.6
23/04:30pm 6.4 0.8 3.2 80 1.4 W 22 32 12 17 1009.4 1009.7 1.6
23/04:00pm 6.8 0.4 3.1 77 1.6 W 26 39 14 21 1009.1 1009.4 1.6
23/03:30pm 6.9 0.5 3.0 76 1.7 W 26 41 14 22 1008.5 1008.8 1.6
23/03:04pm 6.8 0.0 3.1 77 1.6 W 28 50 15 27 1008.2 1008.5 1.6
23/03:00pm 7.0 1.0 3.4 78 1.5 W 24 50 13 27 1008.1 1008.4 1.6
23/02:30pm 6.2 0.3 3.9 85 1.0 W 24 35 13 19 1007.6 1007.9 1.6
23/02:09pm 6.2 -0.5 3.4 82 1.2 W 28 54 15 29 1007.5 1007.8 1.2
23/02:00pm 7.3 1.0 3.9 79 1.5 W 26 39 14 21 1007.3 1007.6 1.0
23/01:30pm 6.4 -0.3 3.6 82 1.2 W 28 43 15 23 1007.2 1007.5 1.0
23/01:09pm 6.2 -1.1 2.3 76 1.6 W 30 57 16 31 1007.0 1007.4 0.6
23/01:00pm 8.1 1.6 2.4 67 2.4 W 26 39 14 21 1006.4 1006.8 0.6
23/12:30pm 7.8 0.1 2.1 67 2.4 W 32 52 17 28 1006.2 1006.5 0.6
23/12:22pm 7.6 -0.2 1.7 66 2.4 W 32 50 17 27 1006.2 1006.5 0.6
23/12:00pm 7.4 0.6 3.1 74 1.8 W 28 43 15 23 1006.5 1006.9 0.6
23/11:30am 6.5 -0.8 2.6 76 1.6 W 30 46 16 25 1006.7 1007.1 0.6
23/11:00am 5.9 -0.3 2.0 76 1.6 W 24 39 13 21 1006.4 1006.8 0.6
23/10:41am 5.5 -1.5 2.2 79 1.4 W 28 52 15 28 1006.3 1006.7 0.6
23/10:30am 5.6 0.2 2.6 81 1.2 W 20 28 11 15 1006.2 1006.5 0.6
23/10:00am 3.4 -4.1 1.4 87 0.8 WSW 30 59 16 32 1005.9 1006.2 0.6
23/09:55am 4.2 -2.9 1.4 82 1.1 W 28 59 15 32 1005.9 1006.2 0.2
23/09:30am 6.2 0.6 1.1 70 2.1 WSW 20 37 11 20 1005.0 1005.3 0.0
23/09:00am 5.8 -0.2 1.0 71 1.9 W 22 35 12 19 1004.2 1004.5 13.6
23/08:30am 5.6 -0.8 1.2 73 1.8 W 24 35 13 19 1003.5 1003.8 13.6
23/08:00am 5.6 -0.4 1.0 72 1.8 W 22 33 12 18 1003.0 1003.3 13.6
23/07:30am 5.5 -0.8 1.6 76 1.6 W 24 33 13 18 1002.4 1002.7 13.6
23/07:00am 5.6 -1.0 2.1 78 1.4 W 26 39 14 21 1001.5 1001.8 13.6
23/06:30am 5.5 -2.1 2.7 82 1.2 W 32 43 17 23 1000.8 1001.1 13.6
23/06:00am 5.5 -1.6 3.7 88 0.8 W 30 52 16 28 1000.1 1000.4 13.6
23/05:30am 5.6 -1.1 3.6 87 0.9 W 28 46 15 25 999.3 999.6 13.2
23/05:00am 6.3 -0.7 4.3 87 0.9 W 30 52 16 28 998.3 998.5 13.0
23/04:33am 6.1 -0.5 4.4 89 0.7 W 28 46 15 25 997.8 998.1 13.0
23/04:30am 6.2 -0.3 4.5 89 0.7 W 28 43 15 23 997.9 998.2 12.8
23/04:00am 6.3 -0.2 4.6 89 0.8 W 28 39 15 21 997.2 997.5 12.6
23/03:30am 6.4 0.7 4.7 89 0.7 W 24 39 13 21 996.6 996.9 12.4
23/03:00am 6.3 0.2 4.9 91 0.6 W 26 43 14 23 996.1 996.4 12.2
23/02:30am 6.2 -0.2 5.0 92 0.5 W 28 46 15 25 995.4 995.6 12.0
23/02:00am 6.7 -0.6 4.5 86 1.0 WNW 32 50 17 27 994.5 994.7 11.8
23/01:30am 6.9 -1.4 4.4 84 1.1 WNW 37 59 20 32 993.5 993.8 11.8
23/01:00am 8.0 0.4 3.7 74 1.9 WNW 33 52 18 28 992.4 992.7 11.8
23/12:37am 7.9 1.2 3.8 75 1.8 NW 28 48 15 26 992.5 992.8 11.8
23/12:30am 7.9 1.2 3.9 76 1.8 NW 28 43 15 23 992.6 992.9 11.8
23/12:23am 8.0 1.4 4.4 78 1.6 NW 28 46 15 25 992.6 992.9 11.8

Latest Capital City Observations: Canberra | Sydney | Melbourne | Brisbane | Adelaide | Perth | Hobart | Darwin

Other Formats:

Comma delimited format used in spreadsheet applications
http://www.bom.gov.au/fwo/IDV60901/IDV60901.94863.axf

JavaScript Object Notation format (JSON) in row-major order
http://www.bom.gov.au/fwo/IDV60901/IDV60901.94863.json